Time,TemperatureF,DewpointF,PressureIn,WindDirection,WindDirectionDegrees,WindSpeedMPH,WindSpeedGustMPH,Humidity,HourlyPrecipIn,Conditions,Clouds,dailyrainin,SolarRadiationWatts/m^2,SoftwareType,DateUTC
2013-04-01 00:02:00,49.0,32.0,-100.00,ENE,64,0.0,0.0,52,0.00,,,0.00,0.000000,,2013-04-01 07:02:00,
2013-04-01 00:32:00,49.0,31.0,-100.00,NNW,337,0.0,1.0,50,0.00,,,-99.99,0.000000,,2013-04-01 07:32:00,
2013-04-01 00:43:00,49.0,31.0,-100.00,NNW,337,0.0,1.0,50,0.00,,,-99.99,0.000000,,2013-04-01 07:43:00,
2013-04-01 00:52:00,49.0,31.0,-100.00,NNW,337,0.0,1.0,50,0.00,,,-99.99,0.000000,,2013-04-01 07:52:00,
2013-04-01 01:02:00,49.0,31.0,-100.00,NNW,337,0.0,1.0,50,0.00,,,-99.99,0.000000,,2013-04-01 08:02:00,
2013-04-01 01:32:00,47.0,30.0,-100.00,North,353,0.0,0.0,51,0.00,,,0.00,0.000000,,2013-04-01 08:32:00,
2013-04-01 01:43:00,47.0,30.0,-100.00,North,353,0.0,0.0,51,0.00,,,0.00,0.000000,,2013-04-01 08:43:00,
2013-04-01 01:53:00,47.0,30.0,-100.00,North,353,0.0,0.0,51,0.00,,,0.00,0.000000,,2013-04-01 08:53:00,
2013-04-01 02:02:00,47.0,30.0,-100.00,North,353,0.0,0.0,51,0.00,,,0.00,0.000000,,2013-04-01 09:02:00,
2013-04-01 02:33:00,46.0,29.0,-100.00,NW,308,0.0,0.0,52,0.00,,,0.00,0.000000,,2013-04-01 09:33:00,
2013-04-01 02:43:00,46.0,29.0,-100.00,NW,308,0.0,0.0,52,0.00,,,0.00,0.000000,,2013-04-01 09:43:00,
2013-04-01 02:53:00,46.0,29.0,-100.00,NW,308,0.0,0.0,52,0.00,,,0.00,0.000000,,2013-04-01 09:53:00,
2013-04-01 03:02:00,46.0,29.0,-100.00,NW,308,0.0,0.0,52,0.00,,,0.00,0.000000,,2013-04-01 10:02:00,
2013-04-01 03:34:00,47.0,31.0,-100.00,NW,322,0.0,0.0,53,0.00,,,0.00,0.000000,,2013-04-01 10:34:00,
2013-04-01 03:42:00,47.0,31.0,-100.00,NW,322,0.0,0.0,53,0.00,,,0.00,0.000000,,2013-04-01 10:42:00,
2013-04-01 03:53:00,47.0,31.0,-100.00,NW,322,0.0,0.0,53,0.00,,,0.00,0.000000,,2013-04-01 10:53:00,
2013-04-01 04:02:00,47.0,31.0,-100.00,NW,322,0.0,0.0,53,0.00,,,0.00,0.000000,,2013-04-01 11:02:00,
2013-04-01 04:33:00,46.0,30.0,-100.00,NNW,348,0.0,0.0,54,0.00,,,0.00,0.000000,,2013-04-01 11:33:00,
2013-04-01 04:43:00,46.0,30.0,-100.00,NNW,348,0.0,0.0,54,0.00,,,0.00,0.000000,,2013-04-01 11:43:00,
2013-04-01 04:53:00,46.0,30.0,-100.00,NNW,348,0.0,0.0,54,0.00,,,0.00,0.000000,,2013-04-01 11:53:00,
2013-04-01 05:02:00,46.0,30.0,-100.00,NNW,348,0.0,0.0,54,0.00,,,0.00,0.000000,,2013-04-01 12:02:00,
2013-04-01 05:32:00,46.0,30.0,-100.00,North,358,0.0,0.0,53,0.00,,,-99.99,0.000000,,2013-04-01 12:32:00,
2013-04-01 05:43:00,46.0,30.0,-100.00,North,358,0.0,0.0,53,0.00,,,-99.99,0.000000,,2013-04-01 12:43:00,
2013-04-01 05:53:00,46.0,30.0,-100.00,North,358,0.0,0.0,53,0.00,,,-99.99,0.000000,,2013-04-01 12:53:00,
2013-04-01 06:02:00,46.0,30.0,-100.00,North,358,0.0,0.0,53,0.00,,,-99.99,0.000000,,2013-04-01 13:02:00,
2013-04-01 06:33:00,44.0,28.0,-100.00,North,352,0.0,0.0,54,0.00,,,0.00,0.000000,,2013-04-01 13:33:00,
2013-04-01 06:43:00,44.0,28.0,-100.00,North,352,0.0,0.0,54,0.00,,,0.00,0.000000,,2013-04-01 13:43:00,
2013-04-01 06:52:00,44.0,28.0,-100.00,North,352,0.0,0.0,54,0.00,,,0.00,0.000000,,2013-04-01 13:52:00,
2013-04-01 07:02:00,44.0,28.0,-100.00,North,352,0.0,0.0,54,0.00,,,0.00,0.000000,,2013-04-01 14:02:00,
2013-04-01 07:33:00,44.0,29.0,-100.00,ENE,71,0.0,0.0,55,0.00,,,0.00,2.000000,,2013-04-01 14:33:00,
2013-04-01 07:42:00,44.0,29.0,-100.00,ENE,71,0.0,0.0,55,0.00,,,0.00,2.000000,,2013-04-01 14:42:00,
2013-04-01 07:52:00,44.0,29.0,-100.00,ENE,71,0.0,0.0,55,0.00,,,0.00,2.000000,,2013-04-01 14:52:00,
2013-04-01 08:02:00,44.0,29.0,-100.00,ENE,71,0.0,0.0,55,0.00,,,0.00,2.000000,,2013-04-01 15:02:00,
2013-04-01 08:34:00,52.0,34.0,-100.00,East,99,0.0,0.0,51,0.00,,,0.00,89.000000,,2013-04-01 15:34:00,
2013-04-01 10:32:00,59.0,36.0,-100.00,South,186,2.0,5.0,42,-99.99,,,0.00,544.000000,,2013-04-01 17:32:00,
2013-04-01 11:33:00,62.0,38.0,-100.00,SSW,210,4.0,7.0,41,0.00,,,0.00,714.000000,,2013-04-01 18:33:00,
2013-04-01 12:32:00,62.0,37.0,-100.00,SSE,168,6.0,9.0,40,0.00,,,0.00,825.000000,,2013-04-01 19:32:00,
2013-04-01 12:42:00,62.0,37.0,-100.00,SSE,168,6.0,9.0,40,0.00,,,0.00,825.000000,,2013-04-01 19:42:00,
2013-04-01 12:53:00,62.0,37.0,-100.00,SSE,168,6.0,9.0,40,0.00,,,0.00,825.000000,,2013-04-01 19:53:00,
2013-04-01 13:02:00,62.0,37.0,-100.00,SSE,168,6.0,9.0,40,0.00,,,0.00,825.000000,,2013-04-01 20:02:00,
2013-04-01 13:33:00,66.0,38.0,-100.00,South,177,7.0,14.0,35,0.00,,,0.00,874.000000,,2013-04-01 20:33:00,
2013-04-01 13:43:00,66.0,38.0,-100.00,South,177,7.0,14.0,35,0.00,,,0.00,874.000000,,2013-04-01 20:43:00,
2013-04-01 13:52:00,66.0,38.0,-100.00,South,177,7.0,14.0,35,0.00,,,0.00,874.000000,,2013-04-01 20:52:00,
2013-04-01 14:02:00,66.0,38.0,-100.00,South,177,7.0,14.0,35,0.00,,,0.00,874.000000,,2013-04-01 21:02:00,
2013-04-01 14:33:00,68.0,36.0,-100.00,South,171,9.0,15.0,31,0.00,,,0.00,886.000000,,2013-04-01 21:33:00,
2013-04-01 14:43:00,68.0,36.0,-100.00,South,171,9.0,15.0,31,0.00,,,0.00,886.000000,,2013-04-01 21:43:00,
2013-04-01 14:53:00,68.0,36.0,-100.00,South,171,9.0,15.0,31,0.00,,,0.00,886.000000,,2013-04-01 21:53:00,
2013-04-01 15:02:00,68.0,36.0,-100.00,South,171,9.0,15.0,31,0.00,,,0.00,886.000000,,2013-04-01 22:02:00,
2013-04-01 15:33:00,67.0,34.0,-100.00,South,172,8.0,19.0,29,0.00,,,0.00,825.000000,,2013-04-01 22:33:00,
2013-04-01 15:43:00,67.0,34.0,-100.00,South,172,8.0,19.0,29,0.00,,,0.00,825.000000,,2013-04-01 22:43:00,
2013-04-01 15:52:00,67.0,34.0,-100.00,South,172,8.0,19.0,29,0.00,,,0.00,825.000000,,2013-04-01 22:52:00,
2013-04-01 16:02:00,67.0,34.0,-100.00,South,172,8.0,19.0,29,0.00,,,0.00,825.000000,,2013-04-01 23:02:00,
2013-04-01 16:32:00,69.0,34.0,-100.00,South,184,6.0,16.0,27,0.00,,,0.00,711.000000,,2013-04-01 23:32:00,
2013-04-01 16:43:00,69.0,34.0,-100.00,South,184,6.0,16.0,27,0.00,,,0.00,711.000000,,2013-04-01 23:43:00,
2013-04-01 16:53:00,69.0,34.0,-100.00,South,184,6.0,16.0,27,0.00,,,0.00,711.000000,,2013-04-01 23:53:00,
2013-04-01 17:02:00,69.0,34.0,-100.00,South,184,6.0,16.0,27,0.00,,,0.00,711.000000,,2013-04-02 00:02:00,
2013-04-01 17:33:00,65.0,37.0,-100.00,South,181,6.0,16.0,35,0.00,,,0.00,467.000000,,2013-04-02 00:33:00,
2013-04-01 17:43:00,65.0,37.0,-100.00,South,181,6.0,16.0,35,0.00,,,0.00,467.000000,,2013-04-02 00:43:00,
2013-04-01 17:53:00,65.0,37.0,-100.00,South,181,6.0,16.0,35,0.00,,,0.00,467.000000,,2013-04-02 00:53:00,
2013-04-01 18:02:00,65.0,37.0,-100.00,South,181,6.0,16.0,35,0.00,,,0.00,467.000000,,2013-04-02 01:02:00,
2013-04-01 18:32:00,62.0,39.0,-100.00,SSW,208,4.0,16.0,42,0.00,,,0.00,138.000000,,2013-04-02 01:32:00,
2013-04-01 18:43:00,62.0,39.0,-100.00,SSW,208,4.0,16.0,42,0.00,,,0.00,138.000000,,2013-04-02 01:43:00,
2013-04-01 18:52:00,62.0,39.0,-100.00,SSW,208,4.0,16.0,42,0.00,,,0.00,138.000000,,2013-04-02 01:52:00,
2013-04-01 19:02:00,62.0,39.0,-100.00,SSW,208,4.0,16.0,42,0.00,,,0.00,138.000000,,2013-04-02 02:02:00,
2013-04-01 19:33:00,54.0,38.0,-100.00,South,180,4.0,13.0,55,0.00,,,0.00,42.000000,,2013-04-02 02:33:00,
2013-04-01 19:42:00,54.0,38.0,-100.00,South,180,4.0,13.0,55,0.00,,,0.00,42.000000,,2013-04-02 02:42:00,
2013-04-01 19:52:00,54.0,38.0,-100.00,South,180,4.0,13.0,55,0.00,,,0.00,42.000000,,2013-04-02 02:52:00,
2013-04-01 20:01:00,54.0,38.0,-100.00,South,180,4.0,13.0,55,0.00,,,0.00,42.000000,,2013-04-02 03:01:00,
2013-04-01 20:33:00,48.0,37.0,-100.00,South,181,2.0,14.0,65,0.00,,,0.00,4.000000,,2013-04-02 03:33:00,
2013-04-01 20:43:00,48.0,37.0,-100.00,South,181,2.0,14.0,65,0.00,,,0.00,4.000000,,2013-04-02 03:43:00,
2013-04-01 20:53:00,48.0,37.0,-100.00,South,181,2.0,14.0,65,0.00,,,0.00,4.000000,,2013-04-02 03:53:00,
2013-04-01 21:02:00,48.0,37.0,-100.00,South,181,2.0,14.0,65,0.00,,,0.00,4.000000,,2013-04-02 04:02:00,
2013-04-01 21:33:00,46.0,36.0,-100.00,SSW,203,0.0,9.0,68,0.00,,,0.00,0.000000,,2013-04-02 04:33:00,
2013-04-01 21:43:00,46.0,36.0,-100.00,SSW,203,0.0,9.0,68,0.00,,,0.00,0.000000,,2013-04-02 04:43:00,
2013-04-01 21:53:00,46.0,36.0,-100.00,SSW,203,0.0,9.0,68,0.00,,,0.00,0.000000,,2013-04-02 04:53:00,
2013-04-01 22:02:00,46.0,36.0,-100.00,SSW,203,0.0,9.0,68,0.00,,,0.00,0.000000,,2013-04-02 05:02:00,
2013-04-01 22:32:00,45.0,35.0,-100.00,SW,236,0.0,6.0,68,0.00,,,0.00,0.000000,,2013-04-02 05:32:00,
2013-04-01 22:43:00,45.0,35.0,-100.00,SW,236,0.0,6.0,68,0.00,,,0.00,0.000000,,2013-04-02 05:43:00,
2013-04-01 22:52:00,45.0,35.0,-100.00,SW,236,0.0,6.0,68,0.00,,,0.00,0.000000,,2013-04-02 05:52:00,
2013-04-01 23:02:00,45.0,35.0,-100.00,SW,236,0.0,6.0,68,0.00,,,0.00,0.000000,,2013-04-02 06:02:00,
2013-04-01 23:32:00,45.0,35.0,-100.00,NE,54,0.0,5.0,67,0.00,,,0.00,0.000000,,2013-04-02 06:32:00,
2013-04-01 23:42:00,45.0,35.0,-100.00,NE,54,0.0,5.0,67,0.00,,,0.00,0.000000,,2013-04-02 06:42:00,
2013-04-01 23:52:00,45.0,35.0,-100.00,NE,54,0.0,5.0,67,0.00,,,0.00,0.000000,,2013-04-02 06:52:00,